createdAt,value
2023-02-04T00:00:10.145Z,9.2
2023-02-04T00:01:17.178Z,9.2
2023-02-04T00:02:24.301Z,9.2
2023-02-04T00:03:31.369Z,9.2
2023-02-04T00:04:37.984Z,9.2
2023-02-04T00:05:45.104Z,9.2
2023-02-04T00:06:52.171Z,9.1
2023-02-04T00:07:59.372Z,9.1
2023-02-04T00:09:06.355Z,9.1
2023-02-04T00:10:14.897Z,9.1
2023-02-04T00:11:20.035Z,9.1
2023-02-04T00:12:27.190Z,9.1
2023-02-04T00:13:34.270Z,9.2
2023-02-04T00:14:41.370Z,9.2
2023-02-04T00:15:48.094Z,9.2
2023-02-04T00:16:55.586Z,9.2
2023-02-04T00:18:02.206Z,9.2
2023-02-04T00:19:09.282Z,9.2
2023-02-04T00:20:15.873Z,9.2
2023-02-04T00:20:16.380Z,9.2
2023-02-04T00:21:23.055Z,9.2
2023-02-04T00:22:30.071Z,9.2
2023-02-04T00:23:37.214Z,9.2
2023-02-04T00:24:44.269Z,9.2
2023-02-04T00:25:50.920Z,9.2
2023-02-04T00:26:58.056Z,9.2
2023-02-04T00:28:05.064Z,9.2
2023-02-04T00:29:12.220Z,9.2
2023-02-04T00:30:19.276Z,9.2
2023-02-04T00:31:25.974Z,9.2
2023-02-04T00:32:32.978Z,9.2
2023-02-04T00:33:40.219Z,9.2
2023-02-04T00:34:47.190Z,9.2
2023-02-04T00:35:54.262Z,9.2
2023-02-04T00:37:00.871Z,9.2
2023-02-04T00:38:08.074Z,9.2
2023-02-04T00:39:15.091Z,9.2
2023-02-04T00:40:22.213Z,9.2
2023-02-04T00:41:29.658Z,9.2
2023-02-04T00:42:35.870Z,9.2
2023-02-04T00:43:42.993Z,9.2
2023-02-04T00:44:50.128Z,9.2
2023-02-04T00:45:57.281Z,9.2
2023-02-04T00:47:04.310Z,9.2
2023-02-04T00:48:10.955Z,9.2
2023-02-04T00:49:18.005Z,9.2
2023-02-04T00:50:25.117Z,9.2
2023-02-04T00:51:32.212Z,9.2
2023-02-04T00:52:39.355Z,9.2
2023-02-04T00:53:45.925Z,9.2
2023-02-04T00:54:53.012Z,9.2
2023-02-04T00:56:00.166Z,9.2
2023-02-04T00:57:07.298Z,9.2
2023-02-04T00:58:14.349Z,9.2
2023-02-04T00:59:20.922Z,9.2
2023-02-04T01:00:28.238Z,9.2
2023-02-04T01:01:35.099Z,9.2
2023-02-04T01:03:49.379Z,9.2
2023-02-04T01:04:55.918Z,9.2
2023-02-04T01:06:03.010Z,9.2
2023-02-04T01:07:10.205Z,9.2
2023-02-04T01:08:17.241Z,9.2
2023-02-04T01:09:24.349Z,9.2
2023-02-04T01:10:31.548Z,9.2
2023-02-04T01:11:38.054Z,9.2
2023-02-04T01:12:45.183Z,9.2
2023-02-04T01:13:52.260Z,9.2
2023-02-04T01:14:59.394Z,9.2
2023-02-04T01:16:05.989Z,9.2
2023-02-04T01:17:13.100Z,9.2
2023-02-04T01:18:20.249Z,9.2
2023-02-04T01:19:27.265Z,9.2
2023-02-04T01:20:34.375Z,9.2
2023-02-04T01:21:41.129Z,9.2
2023-02-04T01:22:48.140Z,9.2
2023-02-04T01:23:55.194Z,9.2
2023-02-04T01:25:02.241Z,9.1
2023-02-04T01:26:09.391Z,9.1
2023-02-04T01:27:15.991Z,9.2
2023-02-04T01:28:23.049Z,9.2
2023-02-04T01:29:30.173Z,9.1
2023-02-04T01:30:37.283Z,9.2
2023-02-04T01:31:43.932Z,9.2
2023-02-04T01:32:51.027Z,9.2
2023-02-04T01:33:58.113Z,9.2
2023-02-04T01:35:05.174Z,9.2
2023-02-04T01:36:12.289Z,9.2
2023-02-04T01:37:19.415Z,9.2
2023-02-04T01:38:26.014Z,9.2
2023-02-04T01:39:33.133Z,9.2
2023-02-04T01:40:40.193Z,9.1
2023-02-04T01:41:47.324Z,9.1
2023-02-04T01:42:53.940Z,9.1
2023-02-04T01:44:01.002Z,9.1
2023-02-04T01:45:08.134Z,9.1
2023-02-04T01:46:15.326Z,9.1
2023-02-04T01:47:22.320Z,9.1
2023-02-04T01:48:29.429Z,9.1
2023-02-04T01:49:35.960Z,9.1
2023-02-04T01:50:43.063Z,9.1
2023-02-04T01:51:50.223Z,9
2023-02-04T01:52:57.358Z,9
2023-02-04T01:54:03.863Z,9
2023-02-04T01:55:11.039Z,9
2023-02-04T01:56:18.139Z,9
2023-02-04T01:57:25.293Z,9
2023-02-04T01:58:32.310Z,9
2023-02-04T01:59:38.940Z,9
2023-02-04T02:00:46.109Z,9
2023-02-04T02:01:53.094Z,9.1
2023-02-04T02:03:00.243Z,9.1
2023-02-04T02:04:07.355Z,9.1
2023-02-04T02:06:21.026Z,9.1
2023-02-04T02:07:28.166Z,9.1
2023-02-04T02:08:35.232Z,9.1
2023-02-04T02:09:42.321Z,9.1
2023-02-04T02:10:48.990Z,9.1
2023-02-04T02:11:56.021Z,9
2023-02-04T02:13:03.141Z,9
2023-02-04T02:14:10.292Z,9
2023-02-04T02:15:17.379Z,9
2023-02-04T02:16:23.945Z,9
2023-02-04T02:17:31.125Z,9
2023-02-04T02:18:38.159Z,9
2023-02-04T02:19:45.214Z,9
2023-02-04T02:20:52.317Z,9
2023-02-04T02:21:58.967Z,9
2023-02-04T02:23:06.115Z,9.1
2023-02-04T02:24:13.667Z,9.1
2023-02-04T02:25:20.260Z,9.1
2023-02-04T02:26:27.373Z,9.1
2023-02-04T02:27:34.030Z,9.1
2023-02-04T02:28:41.413Z,9.1
2023-02-04T02:29:48.178Z,9.1
2023-02-04T02:32:02.331Z,9.2
2023-02-04T02:33:08.954Z,9.2
2023-02-04T02:34:16.051Z,9.2
2023-02-04T02:35:23.134Z,9.2
2023-02-04T02:36:30.261Z,9.2
2023-02-04T02:37:37.454Z,9.1
2023-02-04T02:38:44.002Z,9.1
2023-02-04T02:39:51.083Z,9.1
2023-02-04T02:40:58.202Z,9.1
2023-02-04T02:42:05.259Z,9.1
2023-02-04T02:43:12.428Z,9.1
2023-02-04T02:44:18.985Z,9.1
2023-02-04T02:45:26.096Z,9.2
2023-02-04T02:46:33.155Z,9.1
2023-02-04T02:47:40.306Z,9.2
2023-02-04T02:48:47.384Z,9.2
2023-02-04T02:49:53.975Z,9.2
2023-02-04T02:51:01.092Z,9.2
2023-02-04T02:52:08.207Z,9.2
2023-02-04T02:53:15.353Z,9.2
2023-02-04T02:54:22.356Z,9.2
2023-02-04T02:55:29.004Z,9.2
2023-02-04T02:56:36.132Z,9.2
2023-02-04T02:57:43.145Z,9.2
2023-02-04T02:58:50.332Z,9.2
2023-02-04T02:59:57.375Z,9.2
2023-02-04T03:01:04.015Z,9.2
2023-02-04T03:02:11.192Z,9.2
2023-02-04T03:03:18.246Z,9.2
2023-02-04T03:04:25.267Z,9.2
2023-02-04T03:06:39.031Z,9.2
2023-02-04T03:07:46.118Z,9.2
2023-02-04T03:10:00.310Z,9.2
2023-02-04T03:11:06.903Z,9.3
2023-02-04T03:12:14.026Z,9.3
2023-02-04T03:13:21.164Z,9.3
2023-02-04T03:14:28.199Z,9.3
2023-02-04T03:15:35.336Z,9.3
2023-02-04T03:16:41.944Z,9.3
2023-02-04T03:17:49.056Z,9.3
2023-02-04T03:18:56.127Z,9.3
2023-02-04T03:20:03.173Z,9.3
2023-02-04T03:21:10.316Z,9.3
2023-02-04T03:22:16.952Z,9.3
2023-02-04T03:23:24.027Z,9.3
2023-02-04T03:24:31.166Z,9.3
2023-02-04T03:25:38.186Z,9.3
2023-02-04T03:26:45.335Z,9.3
2023-02-04T03:27:52.448Z,9.3
2023-02-04T03:28:59.076Z,9.3
2023-02-04T03:30:06.159Z,9.3
2023-02-04T03:31:13.339Z,9.3
2023-02-04T03:32:20.370Z,9.3
2023-02-04T03:33:27.078Z,9.3
2023-02-04T03:34:34.004Z,9.2
2023-02-04T03:35:41.134Z,9.2
2023-02-04T03:36:48.285Z,9.2
2023-02-04T03:37:55.393Z,9.2
2023-02-04T03:39:01.998Z,9.2
2023-02-04T03:40:09.041Z,9.2
2023-02-04T03:41:16.168Z,9.2
2023-02-04T03:42:23.213Z,9.2
2023-02-04T03:43:32.388Z,9.2
2023-02-04T03:44:36.963Z,9.2
2023-02-04T03:45:45.825Z,9.2
2023-02-04T03:46:51.172Z,9.2
2023-02-04T03:47:58.445Z,9.2
2023-02-04T03:49:05.385Z,9.2
2023-02-04T03:50:14.862Z,9.2
2023-02-04T03:51:19.021Z,9.2
2023-02-04T03:52:26.195Z,9.2
2023-02-04T03:53:33.273Z,9.2
2023-02-04T03:54:40.401Z,9.2
2023-02-04T03:55:46.992Z,9.2
2023-02-04T03:56:54.080Z,9.2
2023-02-04T03:58:01.196Z,9.2
2023-02-04T04:00:15.413Z,9.2
2023-02-04T04:01:22.011Z,9.2
2023-02-04T04:02:29.083Z,9.2
2023-02-04T04:03:36.303Z,9.2
2023-02-04T04:04:43.280Z,9.2
2023-02-04T04:05:50.427Z,9.2
2023-02-04T04:06:56.991Z,9.2
2023-02-04T04:08:04.155Z,9.2
2023-02-04T04:09:11.214Z,9.2
2023-02-04T04:10:18.316Z,9.2
2023-02-04T04:11:25.373Z,9.2
2023-02-04T04:13:39.176Z,9.2
2023-02-04T04:14:46.220Z,9.2
2023-02-04T04:15:53.272Z,9.2
2023-02-04T04:16:59.844Z,9.2
2023-02-04T04:18:07.056Z,9.2
2023-02-04T04:19:14.097Z,9.2
2023-02-04T04:20:21.246Z,9.2
2023-02-04T04:21:28.266Z,9.2
2023-02-04T04:22:34.869Z,9.2
2023-02-04T04:23:41.992Z,9.2
2023-02-04T04:24:49.124Z,9.2
2023-02-04T04:25:56.220Z,9.2
2023-02-04T04:27:03.312Z,9.2
2023-02-04T04:28:10.084Z,9.2
2023-02-04T04:29:17.041Z,9.2
2023-02-04T04:30:24.097Z,9.2
2023-02-04T04:31:31.349Z,9.2
2023-02-04T04:32:38.331Z,9.2
2023-02-04T04:33:44.897Z,9.2
2023-02-04T04:34:52.018Z,9.2
2023-02-04T04:35:59.127Z,9.2
2023-02-04T04:37:06.237Z,9.2
2023-02-04T04:38:13.340Z,9.2
2023-02-04T04:39:20.075Z,9.2
2023-02-04T04:40:27.018Z,9.2
2023-02-04T04:41:34.099Z,9.2
2023-02-04T04:42:41.259Z,9.2
2023-02-04T04:43:48.374Z,9.2
2023-02-04T04:44:54.924Z,9.2
2023-02-04T04:46:02.003Z,9.1
2023-02-04T04:47:09.168Z,9.1
2023-02-04T04:48:16.340Z,9.1
2023-02-04T04:49:23.323Z,9
2023-02-04T04:50:30.269Z,9
2023-02-04T04:51:37.079Z,9
2023-02-04T04:52:44.148Z,9
2023-02-04T04:53:51.218Z,9
2023-02-04T04:54:58.347Z,9
2023-02-04T04:56:04.926Z,9
2023-02-04T04:57:12.071Z,9
2023-02-04T04:58:19.183Z,9
2023-02-04T04:59:26.230Z,9
2023-02-04T05:00:33.616Z,9
2023-02-04T05:01:39.927Z,9
2023-02-04T05:02:47.124Z,9
2023-02-04T05:03:54.106Z,9
2023-02-04T05:05:01.399Z,9
2023-02-04T05:06:08.342Z,9
2023-02-04T05:07:14.947Z,9
2023-02-04T05:08:22.080Z,9
2023-02-04T05:09:29.174Z,9
2023-02-04T05:10:36.295Z,9
2023-02-04T05:11:43.335Z,9
2023-02-04T05:12:50.022Z,9
2023-02-04T05:13:57.086Z,9
2023-02-04T05:15:04.163Z,9
2023-02-04T05:17:18.395Z,9
2023-02-04T05:18:24.976Z,9
2023-02-04T05:19:32.069Z,9
2023-02-04T05:20:39.188Z,9
2023-02-04T05:21:46.264Z,9
2023-02-04T05:22:53.395Z,9
2023-02-04T05:24:00.027Z,9
2023-02-04T05:25:07.088Z,9
2023-02-04T05:26:25.135Z,9
2023-02-04T05:28:28.395Z,9
2023-02-04T05:29:34.957Z,9
2023-02-04T05:30:42.130Z,9
2023-02-04T05:31:49.237Z,9
2023-02-04T05:32:56.329Z,9
2023-02-04T05:34:02.877Z,9
2023-02-04T05:35:10.534Z,9
2023-02-04T05:36:17.087Z,9
2023-02-04T05:37:24.161Z,9
2023-02-04T05:38:31.387Z,9
2023-02-04T05:39:37.903Z,9
2023-02-04T05:40:44.998Z,9
2023-02-04T05:41:52.134Z,9
2023-02-04T05:42:59.189Z,9
2023-02-04T05:44:06.311Z,9
2023-02-04T05:45:12.850Z,9
2023-02-04T05:46:20.003Z,9
2023-02-04T05:47:27.113Z,9
2023-02-04T05:48:34.230Z,9
2023-02-04T05:49:41.271Z,9
2023-02-04T05:50:47.944Z,9
2023-02-04T05:51:55.038Z,9
2023-02-04T05:53:02.151Z,9
2023-02-04T05:54:09.225Z,9
2023-02-04T05:55:16.316Z,8.9
2023-02-04T05:56:22.892Z,8.9
2023-02-04T05:57:30.029Z,8.9
2023-02-04T05:58:39.248Z,8.9
2023-02-04T05:59:44.228Z,8.9
2023-02-04T06:00:51.397Z,8.9
2023-02-04T06:01:58.454Z,8.9
2023-02-04T06:03:05.123Z,8.9
2023-02-04T06:04:12.285Z,8.9
2023-02-04T06:05:19.227Z,8.9
2023-02-04T06:06:26.323Z,8.9
2023-02-04T06:07:32.897Z,8.9
2023-02-04T06:08:40.126Z,8.9
2023-02-04T06:09:47.168Z,8.9
2023-02-04T06:10:54.230Z,8.9
2023-02-04T06:12:01.346Z,8.9
2023-02-04T06:13:07.931Z,8.9
2023-02-04T06:14:15.028Z,8.9
2023-02-04T06:15:22.166Z,8.8
2023-02-04T06:16:29.277Z,8.8
2023-02-04T06:17:36.334Z,8.8
2023-02-04T06:18:42.910Z,8.8
2023-02-04T06:20:57.183Z,8.9
2023-02-04T06:22:04.280Z,8.8
2023-02-04T06:23:11.426Z,8.8
2023-02-04T06:24:17.970Z,8.8
2023-02-04T06:25:25.016Z,8.8
2023-02-04T06:26:32.178Z,8.8
2023-02-04T06:27:39.297Z,8.9
2023-02-04T06:28:46.400Z,8.8
2023-02-04T06:29:52.955Z,8.8
2023-02-04T06:31:00.228Z,8.8
2023-02-04T06:32:07.176Z,8.8
2023-02-04T06:33:14.345Z,8.8
2023-02-04T06:34:21.396Z,8.8
2023-02-04T06:35:27.978Z,8.8
2023-02-04T06:36:35.085Z,8.8
2023-02-04T06:37:42.158Z,8.8
2023-02-04T06:38:49.297Z,8.8
2023-02-04T06:39:56.398Z,8.8
2023-02-04T06:41:02.971Z,8.8
2023-02-04T06:42:10.104Z,8.8
2023-02-04T06:43:17.236Z,8.8
2023-02-04T06:44:24.251Z,8.8
2023-02-04T06:45:30.893Z,8.8
2023-02-04T06:46:38.003Z,8.8
2023-02-04T06:47:45.045Z,8.8
2023-02-04T06:48:52.208Z,8.8
2023-02-04T06:49:58.810Z,8.8
2023-02-04T06:51:05.859Z,8.8
2023-02-04T06:52:12.941Z,8.8
2023-02-04T06:53:20.172Z,8.8
2023-02-04T06:54:27.221Z,8.8
2023-02-04T06:56:40.941Z,8.8
2023-02-04T06:57:47.979Z,8.8
2023-02-04T06:58:55.119Z,8.8
2023-02-04T07:00:02.185Z,8.9
2023-02-04T07:01:09.426Z,8.9
2023-02-04T07:02:15.958Z,8.9
2023-02-04T07:03:23.013Z,9
2023-02-04T07:04:30.124Z,9
2023-02-04T07:05:37.172Z,9
2023-02-04T07:06:44.276Z,9
2023-02-04T07:07:50.882Z,9
2023-02-04T07:08:58.073Z,9
2023-02-04T07:10:05.103Z,9
2023-02-04T07:11:12.237Z,9
2023-02-04T07:12:19.292Z,8.9
2023-02-04T07:13:26.471Z,8.9
2023-02-04T07:14:33.031Z,8.9
2023-02-04T07:15:40.255Z,8.9
2023-02-04T07:16:47.223Z,8.9
2023-02-04T07:17:54.448Z,8.9
2023-02-04T07:19:00.887Z,8.9
2023-02-04T07:20:08.195Z,8.9
2023-02-04T07:21:15.134Z,8.9
2023-02-04T07:22:22.267Z,8.9
2023-02-04T07:24:35.928Z,8.9
2023-02-04T07:25:43.056Z,8.9
2023-02-04T07:26:50.166Z,8.8
2023-02-04T07:27:57.322Z,8.8
2023-02-04T07:29:05.827Z,8.9
2023-02-04T07:30:10.966Z,8.9
2023-02-04T07:31:18.181Z,8.8
2023-02-04T07:32:25.138Z,8.8
2023-02-04T07:33:32.220Z,8.8
2023-02-04T07:34:39.377Z,8.8
2023-02-04T07:35:45.984Z,8.8
2023-02-04T07:36:53.084Z,8.9
2023-02-04T07:38:00.243Z,8.9
2023-02-04T07:39:07.330Z,8.9
2023-02-04T07:40:14.874Z,8.9
2023-02-04T07:41:20.985Z,8.9
2023-02-04T07:42:28.559Z,8.9
2023-02-04T07:43:35.145Z,8.9
2023-02-04T07:44:42.260Z,8.9
2023-02-04T07:45:49.379Z,8.9
2023-02-04T07:46:55.933Z,8.9
2023-02-04T07:48:03.056Z,8.9
2023-02-04T07:49:10.157Z,8.8
2023-02-04T07:50:17.293Z,8.8
2023-02-04T07:51:23.885Z,8.8
2023-02-04T07:52:31.010Z,8.8
2023-02-04T07:53:38.054Z,8.8
2023-02-04T07:54:45.141Z,8.8
2023-02-04T07:55:52.266Z,8.8
2023-02-04T07:56:58.838Z,8.8
2023-02-04T07:58:06.008Z,8.7
2023-02-04T07:59:13.023Z,8.7
2023-02-04T08:00:20.196Z,8.7
2023-02-04T08:01:27.328Z,8.7
2023-02-04T08:02:33.882Z,8.6
2023-02-04T08:03:41.906Z,8.6
2023-02-04T08:04:48.121Z,8.6
2023-02-04T08:05:55.190Z,8.6
2023-02-04T08:07:02.244Z,8.6
2023-02-04T08:08:08.875Z,8.6
2023-02-04T08:09:16.020Z,8.6
2023-02-04T08:10:23.073Z,8.6
2023-02-04T08:11:30.204Z,8.6
2023-02-04T08:12:36.807Z,8.6
2023-02-04T08:13:43.887Z,8.5
2023-02-04T08:14:51.013Z,8.6
2023-02-04T08:15:58.337Z,8.5
2023-02-04T08:17:05.191Z,8.5
2023-02-04T08:18:12.310Z,8.5
2023-02-04T08:19:18.968Z,8.5
2023-02-04T08:20:26.019Z,8.5
2023-02-04T08:21:33.081Z,8.5
2023-02-04T08:22:40.183Z,8.5
2023-02-04T08:24:54.439Z,8.5
2023-02-04T08:26:01.002Z,8.5
2023-02-04T08:28:15.235Z,8.5
2023-02-04T08:29:22.328Z,8.5
2023-02-04T08:30:28.854Z,8.5
2023-02-04T08:31:36.201Z,8.5
2023-02-04T08:32:43.106Z,8.5
2023-02-04T08:33:50.294Z,8.5
2023-02-04T08:34:57.353Z,8.5
2023-02-04T08:36:03.880Z,8.5
2023-02-04T08:37:10.999Z,8.5
2023-02-04T08:38:18.117Z,8.5
2023-02-04T08:39:25.240Z,8.5
2023-02-04T08:40:32.604Z,8.5
2023-02-04T08:41:38.946Z,8.5
2023-02-04T08:42:46.011Z,8.6
2023-02-04T08:43:53.170Z,8.6
2023-02-04T08:45:00.285Z,8.6
2023-02-04T08:46:07.334Z,8.6
2023-02-04T08:47:13.914Z,8.6
2023-02-04T08:48:21.069Z,8.6
2023-02-04T08:49:28.154Z,8.7
2023-02-04T08:50:35.203Z,8.7
2023-02-04T08:51:42.354Z,8.7
2023-02-04T08:52:48.959Z,8.7
2023-02-04T08:53:55.585Z,8.7
2023-02-04T08:55:03.132Z,8.7
2023-02-04T08:56:10.312Z,8.8
2023-02-04T08:57:17.369Z,8.8
2023-02-04T08:58:23.960Z,8.8
2023-02-04T08:59:31.089Z,8.8
2023-02-04T09:00:38.225Z,8.8
2023-02-04T09:01:45.319Z,8.8
2023-02-04T09:02:51.899Z,8.8
2023-02-04T09:03:59.070Z,8.8
2023-02-04T09:05:06.119Z,8.8
2023-02-04T09:06:13.205Z,8.9
2023-02-04T09:07:20.243Z,8.9
2023-02-04T09:08:26.859Z,8.9
2023-02-04T09:09:33.976Z,8.9
2023-02-04T09:10:41.140Z,9
2023-02-04T09:11:48.206Z,9
2023-02-04T09:12:55.257Z,9
2023-02-04T09:14:01.967Z,9
2023-02-04T09:15:09.007Z,9
2023-02-04T09:16:16.179Z,9
2023-02-04T09:17:23.196Z,9
2023-02-04T09:18:30.279Z,9
2023-02-04T09:19:36.901Z,9
2023-02-04T09:20:43.960Z,9
2023-02-04T09:21:51.174Z,9
2023-02-04T09:22:58.196Z,9
2023-02-04T09:24:05.294Z,9
2023-02-04T09:25:11.915Z,9
2023-02-04T09:26:18.997Z,9
2023-02-04T09:27:26.118Z,9.1
2023-02-04T09:28:33.285Z,9.1
2023-02-04T09:29:40.384Z,9.2
2023-02-04T09:31:54.048Z,9.2
2023-02-04T09:33:01.154Z,9.2
2023-02-04T09:34:08.308Z,9.2
2023-02-04T09:35:14.805Z,9.2
2023-02-04T09:36:22.464Z,9.2
2023-02-04T09:37:29.068Z,9.3
2023-02-04T09:38:36.225Z,9.3
2023-02-04T09:39:43.189Z,9.3
2023-02-04T09:40:50.328Z,9.3
2023-02-04T09:41:56.950Z,9.3
2023-02-04T09:43:04.025Z,9.3
2023-02-04T09:44:11.145Z,9.3
2023-02-04T09:45:18.255Z,9.3
2023-02-04T09:46:25.368Z,9.3
2023-02-04T09:47:31.949Z,9.3
2023-02-04T09:48:39.070Z,9.3
2023-02-04T09:49:46.710Z,9.3
2023-02-04T09:50:53.214Z,9.3
2023-02-04T09:53:06.976Z,9.4
2023-02-04T09:54:14.054Z,9.4
2023-02-04T09:55:21.315Z,9.4
2023-02-04T09:56:28.285Z,9.4
2023-02-04T09:57:35.375Z,9.4
2023-02-04T09:58:41.937Z,9.4
2023-02-04T09:59:49.082Z,9.4
2023-02-04T10:00:56.197Z,9.4
2023-02-04T10:02:03.260Z,9.4
2023-02-04T10:03:10.367Z,9.4
2023-02-04T10:04:16.961Z,9.5
2023-02-04T10:05:24.023Z,9.4
2023-02-04T10:06:31.177Z,9.4
2023-02-04T10:07:38.260Z,9.5
2023-02-04T10:08:45.403Z,9.5
2023-02-04T10:09:51.927Z,9.6
2023-02-04T10:10:59.033Z,9.6
2023-02-04T10:12:06.151Z,9.6
2023-02-04T10:13:13.261Z,9.6
2023-02-04T10:14:19.888Z,9.6
2023-02-04T10:15:26.936Z,9.6
2023-02-04T10:16:33.565Z,9.6
2023-02-04T10:17:41.175Z,9.7
2023-02-04T10:18:48.297Z,9.7
2023-02-04T10:19:54.805Z,9.8
2023-02-04T10:21:01.938Z,9.8
2023-02-04T10:22:09.051Z,9.8
2023-02-04T10:23:16.184Z,9.8
2023-02-04T10:24:23.268Z,9.8
2023-02-04T10:25:29.844Z,9.8
2023-02-04T10:26:36.998Z,9.8
2023-02-04T10:27:44.087Z,9.8
2023-02-04T10:28:51.250Z,9.8
2023-02-04T10:29:58.278Z,9.8
2023-02-04T10:31:04.980Z,9.7
2023-02-04T10:32:11.970Z,9.7
2023-02-04T10:33:19.085Z,9.7
2023-02-04T10:35:33.261Z,9.7
2023-02-04T10:36:39.871Z,9.7
2023-02-04T10:37:47.008Z,9.7
2023-02-04T10:38:54.203Z,9.7
2023-02-04T10:40:01.185Z,9.7
2023-02-04T10:41:08.297Z,9.7
2023-02-04T10:42:14.893Z,9.7
2023-02-04T10:43:22.039Z,9.7
2023-02-04T10:44:29.088Z,9.7
2023-02-04T10:45:36.210Z,9.7
2023-02-04T10:46:43.334Z,9.7
2023-02-04T10:47:50.476Z,9.7
2023-02-04T10:48:57.040Z,9.7
2023-02-04T10:50:04.082Z,9.7
2023-02-04T10:51:11.252Z,9.7
2023-02-04T10:52:18.368Z,9.7
2023-02-04T10:53:25.502Z,9.8
2023-02-04T10:54:32.007Z,9.7
2023-02-04T10:55:39.140Z,9.7
2023-02-04T10:56:46.237Z,9.8
2023-02-04T10:57:52.823Z,9.8
2023-02-04T10:58:59.940Z,9.8
2023-02-04T11:00:07.062Z,9.8
2023-02-04T11:01:14.151Z,9.8
2023-02-04T11:02:21.267Z,9.8
2023-02-04T11:03:28.437Z,9.8
2023-02-04T11:04:34.872Z,9.9
2023-02-04T11:05:42.017Z,9.9
2023-02-04T11:06:49.144Z,9.9
2023-02-04T11:07:56.247Z,9.9
2023-02-04T11:09:03.356Z,9.9
2023-02-04T11:10:09.967Z,9.9
2023-02-04T11:11:17.078Z,9.9
2023-02-04T11:12:24.134Z,9.8
2023-02-04T11:13:31.290Z,9.8
2023-02-04T11:14:38.363Z,9.8
2023-02-04T11:15:45.023Z,9.7
2023-02-04T11:16:52.031Z,9.6
2023-02-04T11:17:59.174Z,9.6
2023-02-04T11:19:06.354Z,9.6
2023-02-04T11:21:19.982Z,9.5
2023-02-04T11:22:27.045Z,9.5
2023-02-04T11:23:34.200Z,9.5
2023-02-04T11:24:41.274Z,9.5
2023-02-04T11:25:48.382Z,9.4
2023-02-04T11:26:54.915Z,9.4
2023-02-04T11:28:02.144Z,9.3
2023-02-04T11:29:09.184Z,9.3
2023-02-04T11:30:16.348Z,9.3
2023-02-04T11:31:23.490Z,9.3
2023-02-04T11:32:29.959Z,9.3
2023-02-04T11:33:37.110Z,9.2
2023-02-04T11:34:44.168Z,9.2
2023-02-04T11:35:51.264Z,9.2
2023-02-04T11:36:58.400Z,9.1
2023-02-04T11:39:11.590Z,9.1
2023-02-04T11:39:12.052Z,9.1
2023-02-04T11:40:19.199Z,9.1
2023-02-04T11:41:26.290Z,9.1
2023-02-04T11:42:32.869Z,9
2023-02-04T11:43:39.977Z,9.1
2023-02-04T11:44:47.138Z,9
2023-02-04T11:45:54.189Z,9
2023-02-04T11:47:01.261Z,9
2023-02-04T11:48:07.824Z,9
2023-02-04T11:49:15.051Z,9
2023-02-04T11:50:22.080Z,8.9
2023-02-04T11:51:29.210Z,8.9
2023-02-04T11:52:36.295Z,8.9
2023-02-04T11:53:42.831Z,8.9
2023-02-04T11:54:50.011Z,8.9
2023-02-04T11:55:57.210Z,8.9
2023-02-04T11:57:04.712Z,8.9
2023-02-04T11:58:11.285Z,8.9
2023-02-04T11:59:18.428Z,8.9
2023-02-04T12:00:24.994Z,8.9
2023-02-04T12:01:32.132Z,8.9
2023-02-04T12:02:39.232Z,8.9
2023-02-04T12:03:46.396Z,8.8
2023-02-04T12:04:52.866Z,8.8
2023-02-04T12:06:00.051Z,8.8
2023-02-04T12:07:07.159Z,8.8
2023-02-04T12:08:14.221Z,8.8
2023-02-04T12:09:21.399Z,8.8
2023-02-04T12:10:28.069Z,8.8
2023-02-04T12:11:35.009Z,8.8
2023-02-04T12:12:42.117Z,8.8
2023-02-04T12:13:49.251Z,8.7
2023-02-04T12:14:56.310Z,8.7
2023-02-04T12:16:02.947Z,8.7
2023-02-04T12:17:10.032Z,8.5
2023-02-04T12:18:17.180Z,8.4
2023-02-04T12:19:26.193Z,8.2
2023-02-04T12:20:31.317Z,8
2023-02-04T12:21:37.943Z,7.8
2023-02-04T12:22:45.036Z,7.7
2023-02-04T12:23:52.175Z,7.6
2023-02-04T12:24:59.253Z,7.6
2023-02-04T12:26:08.391Z,7.5
2023-02-04T12:27:12.928Z,7.5
2023-02-04T12:28:20.097Z,7.4
2023-02-04T12:29:27.229Z,7.5
2023-02-04T12:30:34.217Z,7.4
2023-02-04T12:31:41.521Z,7.4
2023-02-04T12:32:47.942Z,7.4
2023-02-04T12:33:55.044Z,7.3
2023-02-04T12:35:02.186Z,7.4
2023-02-04T12:36:09.530Z,7.4
2023-02-04T12:37:16.389Z,7.3
2023-02-04T12:38:22.967Z,7.3
2023-02-04T12:39:30.145Z,7.3
2023-02-04T12:40:37.149Z,7.3
2023-02-04T12:42:51.335Z,7.3
2023-02-04T12:43:57.979Z,7.3
2023-02-04T12:45:05.013Z,7.3
2023-02-04T12:46:12.246Z,7.3
2023-02-04T12:47:19.274Z,7.2
2023-02-04T12:49:33.012Z,7.2
2023-02-04T12:50:40.032Z,7.2
2023-02-04T12:51:47.204Z,7.3
2023-02-04T12:52:54.252Z,7.2
2023-02-04T12:54:00.812Z,7.1
2023-02-04T12:55:08.017Z,7.1
2023-02-04T12:56:15.070Z,7
2023-02-04T12:57:22.158Z,7
2023-02-04T12:58:29.438Z,6.9
2023-02-04T12:59:35.861Z,6.9
2023-02-04T13:00:43.496Z,6.9
2023-02-04T13:01:50.095Z,6.9
2023-02-04T13:02:57.209Z,6.8
2023-02-04T13:04:04.270Z,6.8
2023-02-04T13:05:10.918Z,6.8
2023-02-04T13:06:17.995Z,6.8
2023-02-04T13:07:25.036Z,6.8
2023-02-04T13:08:32.219Z,6.8
2023-02-04T13:09:39.335Z,6.8
2023-02-04T13:10:46.417Z,6.8
2023-02-04T13:11:52.967Z,6.8
2023-02-04T13:13:01.952Z,6.8
2023-02-04T13:14:07.229Z,6.8
2023-02-04T13:15:14.308Z,6.8
2023-02-04T13:16:20.956Z,6.8
2023-02-04T13:17:28.014Z,6.7
2023-02-04T13:18:35.126Z,6.7
2023-02-04T13:19:42.214Z,6.8
2023-02-04T13:20:49.346Z,6.7
2023-02-04T13:21:55.863Z,6.7
2023-02-04T13:23:03.009Z,6.7
2023-02-04T13:24:10.197Z,6.7
2023-02-04T13:25:17.202Z,6.7
2023-02-04T13:26:24.315Z,6.7
2023-02-04T13:27:30.884Z,6.7
2023-02-04T13:28:38.087Z,6.7
2023-02-04T13:29:45.099Z,6.7
2023-02-04T13:30:52.291Z,6.8
2023-02-04T13:31:59.304Z,6.7
2023-02-04T13:33:05.902Z,6.7
2023-02-04T13:34:12.983Z,6.7
2023-02-04T13:35:20.133Z,6.7
2023-02-04T13:36:27.259Z,6.7
2023-02-04T13:37:34.324Z,6.7
2023-02-04T13:38:40.976Z,6.7
2023-02-04T13:39:48.071Z,6.7
2023-02-04T13:40:55.085Z,6.7
2023-02-04T13:42:04.361Z,6.7
2023-02-04T13:43:09.350Z,6.7
2023-02-04T13:44:16.001Z,6.7
2023-02-04T13:45:23.110Z,6.7
2023-02-04T13:46:30.167Z,6.7
2023-02-04T13:47:37.262Z,6.7
2023-02-04T13:48:44.350Z,6.7
2023-02-04T13:49:50.953Z,6.7
2023-02-04T13:50:58.035Z,6.7
2023-02-04T13:52:05.159Z,6.7
2023-02-04T13:53:12.232Z,6.7
2023-02-04T13:54:19.702Z,6.6
2023-02-04T13:55:25.914Z,6.6
2023-02-04T13:56:33.023Z,6.6
2023-02-04T13:57:40.178Z,6.6
2023-02-04T13:58:47.317Z,6.6
2023-02-04T13:59:53.851Z,6.5
2023-02-04T14:01:01.061Z,6.5
2023-02-04T14:02:08.113Z,6.5
2023-02-04T14:03:15.145Z,6.6
2023-02-04T14:04:22.321Z,6.6
2023-02-04T14:05:28.885Z,6.6
2023-02-04T14:06:35.915Z,6.5
2023-02-04T14:07:43.040Z,6.5
2023-02-04T14:08:50.168Z,6.4
2023-02-04T14:09:57.286Z,6.4
2023-02-04T14:11:03.823Z,6.4
2023-02-04T14:12:11.014Z,6.4
2023-02-04T14:13:18.049Z,6.4
2023-02-04T14:14:25.222Z,6.4
2023-02-04T14:15:32.295Z,6.4
2023-02-04T14:17:45.984Z,6.3
2023-02-04T14:18:53.151Z,6.3
2023-02-04T14:20:00.186Z,6.3
2023-02-04T14:21:07.311Z,6.3
2023-02-04T14:22:14.406Z,6.3
2023-02-04T14:23:21.014Z,6.3
2023-02-04T14:24:28.128Z,6.2
2023-02-04T14:25:35.180Z,6.1
2023-02-04T14:26:42.269Z,6.1
2023-02-04T14:27:48.919Z,6.1
2023-02-04T14:28:56.063Z,6.1
2023-02-04T14:30:03.041Z,6
2023-02-04T14:31:10.294Z,5.9
2023-02-04T14:32:17.330Z,5.9
2023-02-04T14:33:23.889Z,5.9
2023-02-04T14:34:31.033Z,5.9
2023-02-04T14:35:38.100Z,5.9
2023-02-04T14:36:45.237Z,5.9
2023-02-04T14:37:52.308Z,5.9
2023-02-04T14:38:58.958Z,5.9
2023-02-04T14:40:06.052Z,5.9
2023-02-04T14:41:13.105Z,5.9
2023-02-04T14:42:20.217Z,6
2023-02-04T14:43:27.308Z,6
2023-02-04T14:44:33.952Z,6
2023-02-04T14:45:41.057Z,6
2023-02-04T14:46:48.150Z,6
2023-02-04T14:47:55.178Z,6
2023-02-04T14:49:02.342Z,6
2023-02-04T14:50:08.955Z,6
2023-02-04T14:51:16.047Z,6
2023-02-04T14:52:23.124Z,6
2023-02-04T14:53:30.769Z,6
2023-02-04T14:54:37.418Z,6.1
2023-02-04T14:55:43.918Z,6.1
2023-02-04T14:56:51.087Z,6.1
2023-02-04T14:57:58.146Z,6.1
2023-02-04T14:59:05.256Z,6.1
2023-02-04T15:00:15.117Z,6.1
2023-02-04T15:01:18.921Z,6
2023-02-04T15:02:26.160Z,6
2023-02-04T15:03:33.124Z,6.1
2023-02-04T15:04:40.316Z,6.1
2023-02-04T15:05:47.401Z,6.1
2023-02-04T15:06:53.967Z,6.1
2023-02-04T15:08:01.590Z,6.1
2023-02-04T15:09:08.213Z,6.2
2023-02-04T15:10:15.498Z,6.3
2023-02-04T15:11:22.362Z,6.3
2023-02-04T15:12:28.973Z,6.3
2023-02-04T15:13:36.230Z,6.3
2023-02-04T15:14:43.227Z,6.4
2023-02-04T15:15:50.253Z,6.4
2023-02-04T15:16:57.108Z,6.4
2023-02-04T15:18:04.032Z,6.5
2023-02-04T15:19:11.114Z,6.4
2023-02-04T15:20:18.148Z,6.5
2023-02-04T15:21:25.244Z,6.5
2023-02-04T15:22:31.860Z,6.5
2023-02-04T15:23:38.977Z,6.5
2023-02-04T15:24:46.189Z,6.5
2023-02-04T15:25:53.146Z,6.5
2023-02-04T15:27:00.273Z,6.5
2023-02-04T15:28:06.941Z,6.4
2023-02-04T15:29:13.956Z,6.4
2023-02-04T15:30:21.149Z,6.4
2023-02-04T15:31:28.317Z,6.4
2023-02-04T15:32:35.292Z,6.4
2023-02-04T15:33:42.447Z,6.3
2023-02-04T15:34:49.051Z,6.3
2023-02-04T15:35:56.096Z,6.3
2023-02-04T15:37:03.182Z,6.3
2023-02-04T15:38:10.317Z,6.3
2023-02-04T15:39:17.439Z,6.3
2023-02-04T15:40:23.945Z,6.3
2023-02-04T15:41:31.099Z,6.3
2023-02-04T15:42:38.169Z,6.4
2023-02-04T15:43:45.306Z,6.3
2023-02-04T15:46:00.441Z,6.4
2023-02-04T15:47:06.568Z,6.4
2023-02-04T15:48:13.151Z,6.5
2023-02-04T15:49:20.320Z,6.5
2023-02-04T15:50:27.027Z,6.5
2023-02-04T15:51:34.014Z,6.5
2023-02-04T15:52:46.336Z,6.5
2023-02-04T15:53:48.241Z,6.5
2023-02-04T15:54:55.307Z,6.5